Time;durP1;ratioP1;P1;durP2;ratioP2;P2;SDS_P1;SDS_P2;PMS_P1;PMS_P2;Temp;Humidity;BMP_temperature;BMP_pressure;BME280_temperature;BME280_humidity;BME280_pressure;Samples;Min_cycle;Max_cycle;Signal;HPM_P1;HPM_P2
2021/07/28 00:02:03;;;;;;;13.57;9.05;;;18.20;99.90;;;;;;4973099;28;20035;-80
2021/07/28 00:04:32;;;;;;;12.85;9.57;;;18.10;99.90;;;;;;4972034;28;20071;-80
2021/07/28 00:06:58;;;;;;;11.63;8.80;;;18.10;99.90;;;;;;4971915;28;20027;-80
2021/07/28 00:09:23;;;;;;;12.65;9.02;;;18.10;99.90;;;;;;4973216;28;20023;-80
2021/07/28 00:11:49;;;;;;;13.73;10.90;;;18.00;99.90;;;;;;4973023;28;20469;-80
2021/07/28 00:14:15;;;;;;;14.55;10.65;;;18.00;99.90;;;;;;4972977;28;20377;-79
2021/07/28 00:16:41;;;;;;;11.48;10.05;;;18.00;99.90;;;;;;4987895;28;20055;-81
2021/07/28 00:24:17;;;;;;;16.48;11.48;;;18.00;99.90;;;;;;4986419;28;20087;-80
2021/07/28 00:26:43;;;;;;;15.60;12.23;;;18.00;99.90;;;;;;4990982;28;20026;-80
2021/07/28 00:29:08;;;;;;;18.30;13.25;;;18.00;99.90;;;;;;4992284;28;20061;-80
2021/07/28 00:31:34;;;;;;;24.42;15.40;;;18.00;99.90;;;;;;4991008;28;20026;-80
2021/07/28 00:34:00;;;;;;;20.98;14.55;;;18.00;99.90;;;;;;4992126;28;20425;-81
2021/07/28 00:36:25;;;;;;;19.33;12.80;;;18.00;99.90;;;;;;4990812;28;20034;-80
2021/07/28 00:38:51;;;;;;;16.63;11.68;;;18.00;99.90;;;;;;4990784;28;20034;-80
2021/07/28 00:41:17;;;;;;;14.77;12.07;;;18.00;99.90;;;;;;4990881;28;20033;-80
2021/07/28 00:43:43;;;;;;;14.85;10.85;;;18.00;99.90;;;;;;4990727;28;20018;-80
2021/07/28 00:46:08;;;;;;;13.52;10.50;;;18.00;99.90;;;;;;4990801;28;20064;-81
2021/07/28 00:48:35;;;;;;;16.65;11.40;;;17.90;99.90;;;;;;4992033;28;20026;-81
2021/07/28 00:51:01;;;;;;;17.52;10.52;;;17.80;99.90;;;;;;4990679;28;20156;-80
2021/07/28 00:53:27;;;;;;;14.07;11.23;;;17.70;99.90;;;;;;4983396;28;20019;-80
2021/07/28 00:55:55;;;;;;;14.75;10.93;;;17.60;99.90;;;;;;4972346;28;20583;-81
2021/07/28 00:58:21;;;;;;;17.38;10.75;;;17.50;99.90;;;;;;4996140;28;20018;-80
2021/07/28 01:00:48;;;;;;;15.65;10.75;;;17.40;99.90;;;;;;4990382;28;20034;-80
2021/07/28 01:03:14;;;;;;;13.52;10.73;;;17.40;99.90;;;;;;4980581;28;20031;-79
2021/07/28 01:05:40;;;;;;;14.27;10.25;;;17.30;99.90;;;;;;4971692;28;20111;-79
2021/07/28 01:08:08;;;;;;;13.30;10.57;;;17.30;99.90;;;;;;4970304;28;20023;-80
2021/07/28 01:10:34;;;;;;;13.40;10.30;;;17.30;99.90;;;;;;4970904;28;20471;-80
2021/07/28 01:13:03;;;;;;;12.35;10.27;;;17.40;99.90;;;;;;4970867;28;20026;-80
2021/07/28 01:18:02;;;;;;;19.13;14.00;;;17.40;99.90;;;;;;4989872;28;20126;-80
2021/07/28 01:20:39;;;;;;;15.82;12.38;;;17.50;99.90;;;;;;4988474;28;20022;-79
2021/07/28 01:23:14;;;;;;;15.20;11.77;;;17.50;99.90;;;;;;4982310;28;20021;-80
2021/07/28 01:25:43;;;;;;;13.07;11.60;;;17.40;99.90;;;;;;4984359;28;20023;-80
2021/07/28 01:28:09;;;;;;;16.23;11.10;;;17.40;99.90;;;;;;4984105;28;20023;-80
2021/07/28 01:30:35;;;;;;;16.48;12.40;;;17.40;99.90;;;;;;4971503;28;20667;-81
2021/07/28 01:33:02;;;;;;;16.63;12.43;;;17.40;99.90;;;;;;4988035;28;20067;-80
2021/07/28 01:35:31;;;;;;;16.35;12.48;;;17.30;99.90;;;;;;4990100;28;20044;-80
2021/07/28 01:37:57;;;;;;;19.23;15.15;;;17.30;99.90;;;;;;4989935;28;20462;-80
2021/07/28 01:40:23;;;;;;;16.73;13.85;;;17.30;99.90;;;;;;4991315;28;20049;-80
2021/07/28 01:42:48;;;;;;;21.30;14.45;;;17.40;99.90;;;;;;4989880;28;20463;-80
2021/07/28 01:45:15;;;;;;;25.45;16.77;;;17.40;99.90;;;;;;4991264;28;20033;-80
2021/07/28 01:47:41;;;;;;;22.25;14.23;;;17.40;99.90;;;;;;4989838;28;20079;-80
2021/07/28 01:50:08;;;;;;;15.18;12.55;;;17.40;99.90;;;;;;4989862;28;20023;-80
2021/07/28 01:52:35;;;;;;;25.58;13.98;;;17.30;99.90;;;;;;4987770;28;20030;-79
2021/07/28 01:55:02;;;;;;;17.33;13.18;;;17.40;99.90;;;;;;5005317;28;20057;-80
2021/07/28 01:57:28;;;;;;;21.40;15.07;;;17.40;99.90;;;;;;5006002;28;20014;-80
2021/07/28 01:59:53;;;;;;;17.60;14.63;;;17.30;99.90;;;;;;4990933;28;20014;-80
2021/07/28 02:02:19;;;;;;;19.98;14.00;;;17.40;99.90;;;;;;4989419;28;20084;-79
2021/07/28 02:04:44;;;;;;;20.80;15.20;;;17.40;99.90;;;;;;4989627;28;20471;-79
2021/07/28 02:07:10;;;;;;;19.80;14.43;;;17.30;99.90;;;;;;4991100;28;20034;-80
2021/07/28 02:09:36;;;;;;;23.25;15.10;;;17.30;99.90;;;;;;4991005;28;20106;-80
2021/07/28 02:12:01;;;;;;;19.10;14.32;;;17.40;99.90;;;;;;4989521;28;20022;-80
2021/07/28 02:14:27;;;;;;;20.38;14.60;;;17.40;99.90;;;;;;4990785;28;20042;-80
2021/07/28 02:16:52;;;;;;;20.60;15.38;;;17.40;99.90;;;;;;4990624;28;20035;-80
2021/07/28 02:19:18;;;;;;;16.05;13.63;;;17.50;99.90;;;;;;4989569;28;20022;-80
2021/07/28 02:21:43;;;;;;;17.17;13.43;;;17.50;99.90;;;;;;4989381;28;20399;-79
2021/07/28 02:24:09;;;;;;;17.13;14.52;;;17.50;99.90;;;;;;4974806;28;20061;-79
2021/07/28 02:26:35;;;;;;;17.80;13.45;;;17.60;99.90;;;;;;4986098;28;20034;-79
2021/07/28 02:29:00;;;;;;;18.02;12.43;;;17.50;99.90;;;;;;4971122;28;20022;-79
2021/07/28 02:31:26;;;;;;;15.60;12.07;;;17.40;99.90;;;;;;4986077;28;20118;-79
2021/07/28 02:33:51;;;;;;;15.85;11.82;;;17.30;99.90;;;;;;4970995;28;20052;-80
2021/07/28 02:36:17;;;;;;;13.45;11.35;;;17.30;99.90;;;;;;4986001;28;20027;-81
2021/07/28 02:38:42;;;;;;;14.82;12.32;;;17.20;99.90;;;;;;4985929;28;20084;-80
2021/07/28 02:41:08;;;;;;;15.18;12.52;;;17.20;99.90;;;;;;4985946;28;20019;-81
2021/07/28 02:43:34;;;;;;;14.05;12.52;;;17.20;99.90;;;;;;4970961;28;20031;-80
2021/07/28 02:45:59;;;;;;;24.48;14.82;;;17.30;99.90;;;;;;4973548;28;20030;-81
2021/07/28 02:48:25;;;;;;;20.13;14.93;;;17.30;99.90;;;;;;4989237;28;20033;-79
2021/07/28 02:50:50;;;;;;;24.38;16.77;;;17.30;99.90;;;;;;4973046;28;20019;-80
2021/07/28 02:53:16;;;;;;;21.38;13.45;;;17.30;99.90;;;;;;4999685;28;20034;-79
2021/07/28 02:55:42;;;;;;;16.13;13.75;;;17.30;99.90;;;;;;4993709;28;20080;-80
2021/07/28 02:58:07;;;;;;;24.55;15.57;;;17.30;99.90;;;;;;4992421;28;20014;-79
2021/07/28 03:00:34;;;;;;;18.55;13.80;;;17.30;99.90;;;;;;4993836;28;20023;-79
2021/07/28 03:02:59;;;;;;;17.15;14.15;;;17.30;99.90;;;;;;4992267;28;20030;-79
2021/07/28 03:05:25;;;;;;;18.60;15.15;;;17.30;99.90;;;;;;4992481;28;20432;-79
2021/07/28 03:07:50;;;;;;;19.05;14.65;;;17.30;99.90;;;;;;4992271;28;20054;-80
2021/07/28 03:10:16;;;;;;;18.77;13.95;;;17.30;99.90;;;;;;4992217;28;20076;-79
2021/07/28 03:12:42;;;;;;;23.95;14.57;;;17.30;99.90;;;;;;4993455;28;20030;-79
2021/07/28 03:15:08;;;;;;;19.77;14.45;;;17.30;99.90;;;;;;4992125;28;20418;-80
2021/07/28 03:17:33;;;;;;;16.38;13.07;;;17.30;99.90;;;;;;4992124;28;20391;-79
2021/07/28 03:19:59;;;;;;;18.83;13.65;;;17.30;99.90;;;;;;4989892;28;20472;-80
2021/07/28 03:22:25;;;;;;;16.85;13.23;;;17.30;99.90;;;;;;4992005;28;20030;-79
2021/07/28 03:24:51;;;;;;;18.80;14.00;;;17.30;99.90;;;;;;4991719;28;20030;-80
2021/07/28 03:27:16;;;;;;;24.75;15.30;;;17.30;99.90;;;;;;4991267;28;20033;-79
2021/07/28 03:29:42;;;;;;;21.45;15.32;;;17.40;99.90;;;;;;4992012;28;20022;-80
2021/07/28 03:32:08;;;;;;;22.58;15.52;;;17.40;99.90;;;;;;4991964;28;20493;-80
2021/07/28 03:34:34;;;;;;;17.60;13.75;;;17.50;99.90;;;;;;4993068;28;20440;-80
2021/07/28 03:36:59;;;;;;;26.17;14.32;;;17.50;99.90;;;;;;4993048;28;20084;-80
2021/07/28 03:39:25;;;;;;;19.08;13.68;;;17.50;99.90;;;;;;4991923;28;20053;-80
2021/07/28 03:41:50;;;;;;;17.58;13.43;;;17.60;99.90;;;;;;4992962;28;20455;-80
2021/07/28 03:44:16;;;;;;;20.38;13.90;;;17.60;99.90;;;;;;4991820;28;20038;-81
2021/07/28 03:46:42;;;;;;;21.55;14.10;;;17.60;99.90;;;;;;4991790;28;20018;-80
2021/07/28 03:49:07;;;;;;;17.67;12.73;;;17.70;99.90;;;;;;4991713;28;20019;-80
2021/07/28 03:51:33;;;;;;;19.75;14.27;;;17.80;99.90;;;;;;4973632;28;20529;-79
2021/07/28 03:53:59;;;;;;;17.98;13.40;;;18.00;99.90;;;;;;4973324;28;20027;-79
2021/07/28 03:56:24;;;;;;;20.63;13.48;;;18.20;99.90;;;;;;4986959;28;20023;-80
2021/07/28 03:58:56;;;;;;;19.13;14.40;;;18.30;99.90;;;;;;4988254;28;20027;-80
2021/07/28 04:01:22;;;;;;;18.38;12.68;;;18.60;99.90;;;;;;4973346;28;20110;-80
2021/07/28 04:03:49;;;;;;;17.95;12.45;;;18.70;99.90;;;;;;4988114;28;20453;-80
2021/07/28 04:06:15;;;;;;;15.77;12.15;;;18.90;99.90;;;;;;4973244;28;20034;-80
2021/07/28 04:08:40;;;;;;;15.88;12.75;;;19.20;99.90;;;;;;4988071;28;20031;-80
2021/07/28 04:11:06;;;;;;;15.20;11.10;;;19.30;99.90;;;;;;4978609;28;20037;-80
2021/07/28 04:13:31;;;;;;;17.13;12.10;;;19.50;99.90;;;;;;4991015;28;20037;-79
2021/07/28 04:15:57;;;;;;;14.68;11.15;;;19.70;99.90;;;;;;4991253;28;20403;-80
2021/07/28 04:18:23;;;;;;;16.13;11.57;;;19.80;99.90;;;;;;4991138;28;20117;-79
2021/07/28 04:20:48;;;;;;;14.40;11.00;;;20.00;99.90;;;;;;4991107;28;20117;-80
2021/07/28 04:23:14;;;;;;;17.08;11.50;;;20.10;99.90;;;;;;4991103;28;20033;-79
2021/07/28 04:25:39;;;;;;;18.67;10.80;;;20.10;99.90;;;;;;4991097;28;20018;-79
2021/07/28 04:28:05;;;;;;;14.05;10.07;;;20.20;99.90;;;;;;4990920;28;20031;-79
2021/07/28 04:30:31;;;;;;;15.07;10.57;;;20.30;99.90;;;;;;4992340;28;20387;-79
2021/07/28 04:32:56;;;;;;;15.68;11.93;;;20.50;99.90;;;;;;4990869;28;20033;-79
2021/07/28 04:35:22;;;;;;;17.83;11.68;;;20.60;99.90;;;;;;4992145;28;20079;-79
2021/07/28 04:37:48;;;;;;;13.82;10.27;;;20.70;99.90;;;;;;4990819;28;20458;-79
2021/07/28 04:40:14;;;;;;;16.50;10.32;;;20.80;99.90;;;;;;4990905;28;20395;-79
2021/07/28 04:42:40;;;;;;;12.25;10.48;;;20.90;99.90;;;;;;4972551;28;20110;-79
2021/07/28 04:45:06;;;;;;;14.38;10.95;;;21.00;99.90;;;;;;4972600;28;20419;-79
2021/07/28 04:47:33;;;;;;;11.52;9.63;;;21.10;99.90;;;;;;4987433;28;20027;-79
2021/07/28 04:49:59;;;;;;;13.65;10.45;;;21.10;99.90;;;;;;4971296;28;20395;-79
2021/07/28 04:52:25;;;;;;;12.32;10.80;;;21.20;99.90;;;;;;4972507;28;20030;-79
2021/07/28 04:54:53;;;;;;;10.10;9.05;;;21.20;99.90;;;;;;4972656;28;20042;-79
2021/07/28 04:57:19;;;;;;;14.57;10.63;;;21.40;99.90;;;;;;4985983;28;20033;-79
2021/07/28 04:59:44;;;;;;;22.70;11.60;;;21.50;99.90;;;;;;4991890;28;20396;-79
2021/07/28 05:02:10;;;;;;;15.05;10.43;;;21.60;99.90;;;;;;4990447;28;20028;-79
2021/07/28 05:04:36;;;;;;;20.10;10.50;;;21.60;99.90;;;;;;4990563;28;20027;-80
2021/07/28 05:07:02;;;;;;;15.07;10.55;;;21.70;99.90;;;;;;4990066;28;20113;-79
2021/07/28 05:09:27;;;;;;;14.63;10.13;;;21.80;99.90;;;;;;4991297;28;20038;-81
2021/07/28 05:11:53;;;;;;;14.77;9.35;;;21.90;99.90;;;;;;4990228;28;20018;-79
2021/07/28 05:14:18;;;;;;;11.73;9.15;;;22.00;99.90;;;;;;4990310;28;20449;-80
2021/07/28 05:16:44;;;;;;;14.68;9.15;;;22.10;99.90;;;;;;4990192;28;20109;-79
2021/07/28 05:19:10;;;;;;;14.68;10.23;;;22.10;99.90;;;;;;4991558;28;20015;-79
2021/07/28 05:21:35;;;;;;;16.48;9.85;;;22.10;99.90;;;;;;4990263;28;20403;-79
2021/07/28 05:24:01;;;;;;;12.35;8.93;;;22.30;99.90;;;;;;4990109;28;20026;-80
2021/07/28 05:26:27;;;;;;;13.00;9.68;;;22.30;99.90;;;;;;4974738;28;20030;-79
2021/07/28 05:28:52;;;;;;;14.90;10.25;;;22.30;99.90;;;;;;4970691;28;20023;-80
2021/07/28 05:31:18;;;;;;;13.68;8.90;;;22.40;99.90;;;;;;4986867;28;20072;-80
2021/07/28 05:33:44;;;;;;;11.48;9.93;;;22.50;99.90;;;;;;4971850;28;20030;-79
2021/07/28 05:36:09;;;;;;;12.13;9.50;;;22.50;99.90;;;;;;4971843;28;20080;-79
2021/07/28 05:38:35;;;;;;;11.38;8.55;;;22.60;99.90;;;;;;4970766;28;20034;-79
2021/07/28 05:41:05;;;;;;;9.32;8.30;;;22.70;99.90;;;;;;4970501;28;20022;-79
2021/07/28 05:43:31;;;;;;;14.93;8.45;;;22.80;99.90;;;;;;4970545;28;20023;-79
2021/07/28 05:45:56;;;;;;;11.63;8.90;;;23.00;99.20;;;;;;4970415;28;20068;-79
2021/07/28 05:48:22;;;;;;;11.85;9.13;;;23.10;99.30;;;;;;4970434;28;20114;-80
2021/07/28 05:50:50;;;;;;;9.77;7.65;;;23.10;98.00;;;;;;4977208;28;20033;-79
2021/07/28 05:53:16;;;;;;;10.13;8.52;;;23.30;97.40;;;;;;5010347;28;20037;-79
2021/07/28 05:55:41;;;;;;;10.98;8.45;;;23.50;96.40;;;;;;4993088;28;20404;-79
2021/07/28 05:58:08;;;;;;;17.30;9.57;;;23.60;97.00;;;;;;4987966;28;20450;-79
2021/07/28 06:00:34;;;;;;;11.13;7.55;;;23.70;95.60;;;;;;4970235;28;20030;-79
2021/07/28 06:02:59;;;;;;;14.50;8.25;;;23.90;94.70;;;;;;4971260;28;20070;-80
2021/07/28 06:05:25;;;;;;;15.02;8.10;;;24.10;92.50;;;;;;4969773;28;20038;-79
2021/07/28 06:07:51;;;;;;;11.73;7.72;;;24.20;90.10;;;;;;4969988;28;20030;-79
2021/07/28 06:10:17;;;;;;;10.23;7.13;;;24.40;88.60;;;;;;4969941;28;20412;-80
2021/07/28 06:12:42;;;;;;;9.10;7.45;;;24.50;85.40;;;;;;4983722;28;20019;-79
2021/07/28 06:15:08;;;;;;;9.05;7.07;;;24.60;86.90;;;;;;5005556;28;20046;-79
2021/07/28 06:17:34;;;;;;;10.10;7.90;;;24.70;91.30;;;;;;5005535;28;20409;-79
2021/07/28 06:20:00;;;;;;;8.98;8.07;;;24.90;89.10;;;;;;4993923;28;20026;-80
2021/07/28 06:22:26;;;;;;;10.82;7.22;;;25.10;87.40;;;;;;4990411;28;20041;-79
2021/07/28 06:24:52;;;;;;;9.55;7.80;;;25.20;82.40;;;;;;4988805;28;20495;-80
2021/07/28 06:27:17;;;;;;;10.10;7.53;;;25.30;82.80;;;;;;4988341;28;20026;-79
2021/07/28 06:29:43;;;;;;;8.52;7.60;;;25.40;82.20;;;;;;4987927;28;20046;-79
2021/07/28 06:32:09;;;;;;;12.85;7.55;;;25.60;83.80;;;;;;4989094;28;20038;-80
2021/07/28 06:34:34;;;;;;;15.70;9.63;;;25.70;80.20;;;;;;4988765;28;20084;-80
2021/07/28 06:37:00;;;;;;;10.32;8.10;;;25.80;77.50;;;;;;4988895;28;20076;-81
2021/07/28 06:39:26;;;;;;;9.90;8.32;;;25.90;78.80;;;;;;4977175;28;20035;-80
2021/07/28 06:41:52;;;;;;;10.25;7.43;;;26.00;76.50;;;;;;4969643;28;20034;-80
2021/07/28 06:44:17;;;;;;;11.55;7.57;;;26.10;77.00;;;;;;4969599;28;20027;-81
2021/07/28 06:46:43;;;;;;;11.40;7.25;;;26.20;77.30;;;;;;4970777;28;20023;-80
2021/07/28 06:49:09;;;;;;;8.13;6.97;;;26.20;76.00;;;;;;4969263;28;20019;-80
2021/07/28 06:51:35;;;;;;;15.32;7.60;;;26.40;74.50;;;;;;4987521;28;21521;-80
2021/07/28 06:54:02;;;;;;;12.13;7.72;;;26.50;72.50;;;;;;4988566;28;20065;-81
2021/07/28 06:56:28;;;;;;;9.85;6.78;;;26.60;74.10;;;;;;4970834;28;20065;-80
2021/07/28 06:58:54;;;;;;;10.90;7.13;;;26.70;72.70;;;;;;4970226;28;20030;-81
2021/07/28 07:01:20;;;;;;;8.70;6.65;;;26.80;71.50;;;;;;4969268;28;20023;-80
2021/07/28 07:03:45;;;;;;;10.20;7.60;;;27.00;75.10;;;;;;4969333;28;20243;-81
2021/07/28 07:06:11;;;;;;;10.45;7.72;;;27.10;74.60;;;;;;4969105;28;20023;-79
2021/07/28 07:08:37;;;;;;;12.40;7.65;;;27.20;71.80;;;;;;4969192;28;20031;-79
2021/07/28 07:11:02;;;;;;;9.90;6.90;;;27.20;72.40;;;;;;4969336;28;20464;-81
2021/07/28 07:13:28;;;;;;;13.90;7.50;;;27.10;71.70;;;;;;4969173;28;20092;-80
2021/07/28 07:15:54;;;;;;;11.65;7.63;;;27.20;72.20;;;;;;4977485;28;20049;-80
2021/07/28 07:18:19;;;;;;;9.63;7.25;;;27.40;72.10;;;;;;4987945;28;20022;-80
2021/07/28 07:20:45;;;;;;;14.95;7.35;;;27.50;70.10;;;;;;4987505;28;20027;-80
2021/07/28 07:23:14;;;;;;;8.45;6.93;;;27.50;69.90;;;;;;4986956;28;20044;-80
2021/07/28 07:25:40;;;;;;;8.95;7.15;;;27.60;68.80;;;;;;4978603;28;20034;-79
2021/07/28 07:28:05;;;;;;;10.23;6.63;;;27.80;70.90;;;;;;4968648;28;20023;-79
2021/07/28 07:30:32;;;;;;;8.55;6.45;;;27.90;65.60;;;;;;4989363;28;20076;-80
2021/07/28 07:35:42;;;;;;;16.13;6.05;;;28.20;63.20;;;;;;4972367;28;20093;-80
2021/07/28 07:38:08;;;;;;;10.15;5.55;;;28.20;60.60;;;;;;5056720;28;20046;-80
2021/07/28 07:40:33;;;;;;;6.75;4.72;;;28.30;60.90;;;;;;5057535;28;20514;-80
2021/07/28 07:42:59;;;;;;;8.73;5.32;;;28.30;60.20;;;;;;4973397;28;20038;-80
2021/07/28 07:45:24;;;;;;;9.52;5.32;;;28.40;58.80;;;;;;4975906;28;20026;-81
2021/07/28 07:47:50;;;;;;;11.77;5.70;;;28.40;58.00;;;;;;4990791;28;20057;-79
2021/07/28 07:50:16;;;;;;;13.13;5.00;;;28.40;58.40;;;;;;4991594;28;20031;-80
2021/07/28 07:52:41;;;;;;;6.68;4.97;;;28.50;57.70;;;;;;4991009;28;20027;-81
2021/07/28 07:55:07;;;;;;;12.38;4.72;;;28.50;58.90;;;;;;4992332;28;20125;-81
2021/07/28 07:57:33;;;;;;;9.27;4.93;;;28.60;57.20;;;;;;4990496;28;20019;-79
2021/07/28 07:59:58;;;;;;;7.32;4.68;;;28.70;58.60;;;;;;4992144;28;20019;-82
2021/07/28 08:02:24;;;;;;;10.90;5.25;;;28.70;57.20;;;;;;4992327;28;20531;-82
2021/07/28 08:04:50;;;;;;;11.68;5.78;;;28.70;56.90;;;;;;4991223;28;20019;-83
2021/07/28 08:07:15;;;;;;;8.05;5.18;;;28.70;56.10;;;;;;4990359;28;20502;-82
2021/07/28 08:09:41;;;;;;;10.43;5.13;;;28.80;55.70;;;;;;4989345;28;20027;-82
2021/07/28 08:12:07;;;;;;;16.88;5.80;;;29.00;58.60;;;;;;4990553;28;20076;-82
2021/07/28 08:14:32;;;;;;;9.50;5.25;;;29.10;56.50;;;;;;4989054;28;20037;-83
2021/07/28 08:16:58;;;;;;;9.00;4.93;;;29.30;55.80;;;;;;5005398;28;20025;-82
2021/07/28 08:19:24;;;;;;;8.00;4.57;;;29.20;55.60;;;;;;4989166;28;20026;-82
2021/07/28 08:21:49;;;;;;;10.80;5.15;;;29.30;55.90;;;;;;5005338;28;20029;-82
2021/07/28 08:24:16;;;;;;;8.18;4.75;;;29.20;55.20;;;;;;4990741;28;20057;-82
2021/07/28 08:26:42;;;;;;;12.65;4.70;;;29.30;55.20;;;;;;4989391;28;20022;-82
2021/07/28 08:29:08;;;;;;;9.55;4.75;;;29.30;55.60;;;;;;5007049;28;20030;-82
2021/07/28 08:31:33;;;;;;;8.73;5.00;;;29.40;54.60;;;;;;4992371;28;20018;-82
2021/07/28 08:33:59;;;;;;;15.60;5.07;;;29.50;53.70;;;;;;4992295;28;20494;-83
2021/07/28 08:36:25;;;;;;;11.93;5.80;;;29.60;52.60;;;;;;4987938;28;20046;-82
2021/07/28 08:38:50;;;;;;;8.05;4.78;;;29.60;53.20;;;;;;4973178;28;20084;-82
2021/07/28 08:41:18;;;;;;;9.75;5.00;;;29.70;54.50;;;;;;4971514;28;20015;-82
2021/07/28 08:43:45;;;;;;;7.07;4.60;;;29.90;53.40;;;;;;4971887;28;20031;-82
2021/07/28 08:46:10;;;;;;;10.77;4.93;;;29.70;53.00;;;;;;4972683;28;20039;-82
2021/07/28 08:48:37;;;;;;;9.27;4.82;;;29.70;52.60;;;;;;4972678;28;20031;-83
2021/07/28 08:51:05;;;;;;;8.82;5.40;;;29.80;51.90;;;;;;4990327;28;20076;-83
2021/07/28 08:53:31;;;;;;;9.00;5.38;;;29.90;52.80;;;;;;4990750;28;20033;-82
2021/07/28 08:56:00;;;;;;;8.35;4.88;;;30.00;53.20;;;;;;4990633;28;20038;-83
2021/07/28 08:58:27;;;;;;;8.80;5.43;;;29.90;52.60;;;;;;4992040;28;20038;-82
2021/07/28 09:00:54;;;;;;;11.10;5.40;;;29.90;53.30;;;;;;4990617;28;20060;-82
2021/07/28 09:03:20;;;;;;;12.85;5.07;;;30.10;55.40;;;;;;4991812;28;20018;-82
2021/07/28 09:05:47;;;;;;;15.13;5.30;;;30.10;53.70;;;;;;4991664;28;20029;-83
2021/07/28 09:08:27;;;;;;;19.60;5.50;;;30.10;52.70;;;;;;4991263;28;20107;-83
2021/07/28 09:10:59;;;;;;;10.93;5.45;;;30.40;52.80;;;;;;4991697;28;20514;-83
2021/07/28 09:13:47;;;;;;;13.20;5.72;;;30.60;53.90;;;;;;4991729;28;20088;-82
2021/07/28 09:16:18;;;;;;;13.75;5.60;;;30.70;51.70;;;;;;4991184;28;20050;-82
2021/07/28 09:18:49;;;;;;;9.20;5.20;;;30.80;51.20;;;;;;4990379;28;20215;-83
2021/07/28 09:21:20;;;;;;;7.90;5.05;;;30.80;50.80;;;;;;4990414;28;20470;-82
2021/07/28 09:23:48;;;;;;;7.28;4.80;;;30.80;51.50;;;;;;4990292;28;20057;-82
2021/07/28 09:26:39;;;;;;;11.93;4.78;;;30.80;51.10;;;;;;4991508;28;20023;-83
2021/07/28 09:29:17;;;;;;;9.20;5.07;;;30.90;49.90;;;;;;4991521;28;20392;-83
2021/07/28 09:31:44;;;;;;;10.05;5.40;;;30.90;48.10;;;;;;4991406;28;20022;-83
2021/07/28 09:34:22;;;;;;;11.05;5.10;;;30.70;49.30;;;;;;4988943;28;20459;-83
2021/07/28 09:36:50;;;;;;;7.80;5.53;;;30.70;48.60;;;;;;4983934;28;20038;-83
2021/07/28 09:39:28;;;;;;;14.93;5.20;;;30.70;48.70;;;;;;4988538;28;20049;-83
2021/07/28 09:41:56;;;;;;;9.13;5.20;;;30.90;49.70;;;;;;4989994;28;20365;-83
2021/07/28 09:44:26;;;;;;;9.07;5.25;;;31.00;52.60;;;;;;4989894;28;20031;-83
2021/07/28 09:47:11;;;;;;;11.00;5.53;;;31.00;52.60;;;;;;4989842;28;20068;-82
2021/07/28 09:49:39;;;;;;;10.90;6.03;;;30.80;53.40;;;;;;4989981;28;20442;-83
2021/07/28 09:52:29;;;;;;;15.15;6.18;;;30.70;53.50;;;;;;4989849;28;20087;-83
2021/07/28 09:54:57;;;;;;;12.68;5.57;;;30.80;52.90;;;;;;4989748;28;20088;-83
2021/07/28 09:57:24;;;;;;;5.97;5.25;;;30.90;53.60;;;;;;4991093;28;20407;-83
2021/07/28 09:59:53;;;;;;;10.88;5.60;;;31.00;51.80;;;;;;4990959;28;20492;-83
2021/07/28 10:02:23;;;;;;;10.90;5.47;;;31.10;50.70;;;;;;4989698;28;20037;-83
2021/07/28 10:04:52;;;;;;;11.18;6.25;;;30.80;51.20;;;;;;4990967;28;20029;-83
2021/07/28 10:07:19;;;;;;;11.88;6.05;;;30.70;53.70;;;;;;4988987;28;20476;-83
2021/07/28 10:10:07;;;;;;;11.27;5.53;;;30.60;51.90;;;;;;4989595;28;20034;-83
2021/07/28 10:12:37;;;;;;;13.23;6.47;;;30.30;51.20;;;;;;4989689;28;20159;-83
2021/07/28 10:15:07;;;;;;;12.15;6.00;;;30.00;52.50;;;;;;4990404;28;20499;-83
2021/07/28 10:17:40;;;;;;;13.90;6.45;;;30.20;52.40;;;;;;4989637;28;20030;-83
2021/07/28 10:20:08;;;;;;;10.50;6.22;;;30.40;54.70;;;;;;4989537;28;20038;-83
2021/07/28 10:22:36;;;;;;;9.68;6.28;;;30.50;53.80;;;;;;4989554;28;20383;-83
2021/07/28 10:25:04;;;;;;;12.02;6.13;;;30.40;53.50;;;;;;5005349;28;20035;-83
2021/07/28 10:27:39;;;;;;;11.02;6.00;;;30.60;53.50;;;;;;4989624;28;20057;-83
2021/07/28 10:30:05;;;;;;;9.80;5.75;;;30.80;53.60;;;;;;4988058;28;20023;-83
2021/07/28 10:32:33;;;;;;;9.50;6.53;;;30.60;54.40;;;;;;4985277;28;20027;-83
2021/07/28 10:35:24;;;;;;;11.45;6.28;;;30.60;53.60;;;;;;4988283;28;20064;-83
2021/07/28 10:37:55;;;;;;;8.27;5.55;;;30.60;53.20;;;;;;4990105;28;20073;-83
2021/07/28 10:40:23;;;;;;;14.95;5.60;;;30.50;54.20;;;;;;4990528;28;20027;-83
2021/07/28 10:42:49;;;;;;;8.77;5.63;;;30.30;54.00;;;;;;4989190;28;20038;-83
2021/07/28 10:45:17;;;;;;;10.90;6.03;;;30.30;55.10;;;;;;4989355;28;20041;-83
2021/07/28 10:47:46;;;;;;;13.77;6.80;;;30.40;55.60;;;;;;4989132;28;20037;-83
2021/07/28 10:50:30;;;;;;;9.65;5.90;;;30.60;53.70;;;;;;4988685;28;20033;-83
2021/07/28 10:53:00;;;;;;;16.55;6.22;;;30.70;53.40;;;;;;4990256;28;20038;-83
2021/07/28 10:55:27;;;;;;;10.52;7.22;;;30.70;52.60;;;;;;4990573;28;20368;-83
2021/07/28 10:57:56;;;;;;;12.05;7.25;;;30.80;53.40;;;;;;4989267;28;20075;-83
2021/07/28 11:00:37;;;;;;;10.05;6.78;;;30.90;53.30;;;;;;4990160;28;20031;-83
2021/07/28 11:03:04;;;;;;;11.73;7.00;;;30.90;53.00;;;;;;4990125;28;20022;-83
2021/07/28 11:05:40;;;;;;;8.95;5.78;;;30.90;52.80;;;;;;4989122;28;20121;-83
2021/07/28 11:08:05;;;;;;;11.77;6.15;;;31.10;52.20;;;;;;4992248;28;20119;-83
2021/07/28 11:10:38;;;;;;;20.65;7.03;;;31.40;50.30;;;;;;4993683;28;20479;-83
2021/07/28 11:13:11;;;;;;;20.17;7.57;;;31.50;51.70;;;;;;4993424;28;20026;-83
2021/07/28 11:15:39;;;;;;;19.88;7.82;;;31.20;51.40;;;;;;4993484;28;20038;-83
2021/07/28 11:18:05;;;;;;;11.50;7.38;;;31.00;52.20;;;;;;4992109;28;20042;-83
2021/07/28 11:20:39;;;;;;;14.70;8.07;;;30.70;52.00;;;;;;4992209;28;20034;-83
2021/07/28 11:23:28;;;;;;;16.67;7.38;;;30.30;53.10;;;;;;4992070;28;20018;-83
2021/07/28 11:25:56;;;;;;;14.18;7.65;;;30.40;53.40;;;;;;4992083;28;20517;-83
2021/07/28 11:28:22;;;;;;;11.70;7.75;;;30.80;54.00;;;;;;4991991;28;20437;-83
2021/07/28 11:30:59;;;;;;;15.75;8.30;;;30.60;53.60;;;;;;4993201;28;20022;-83
2021/07/28 11:33:26;;;;;;;22.08;9.20;;;30.50;53.80;;;;;;4986192;28;20027;-83
2021/07/28 11:35:53;;;;;;;15.93;7.60;;;30.60;52.90;;;;;;4972324;28;20403;-83
2021/07/28 11:38:36;;;;;;;17.58;7.75;;;30.50;53.40;;;;;;4973554;28;20033;-83
2021/07/28 11:41:04;;;;;;;15.27;8.52;;;30.70;55.10;;;;;;4972911;28;20049;-83
2021/07/28 11:43:32;;;;;;;13.52;8.50;;;30.80;53.00;;;;;;4972356;28;20442;-83
2021/07/28 11:46:00;;;;;;;15.18;8.85;;;30.90;52.00;;;;;;4988522;28;20460;-83
2021/07/28 11:48:26;;;;;;;14.98;7.57;;;30.90;51.30;;;;;;4972257;28;20058;-83
2021/07/28 11:50:52;;;;;;;11.75;7.32;;;31.00;54.80;;;;;;4973527;28;20027;-83
2021/07/28 11:53:25;;;;;;;10.45;6.93;;;31.00;52.30;;;;;;4972236;28;20027;-83
2021/07/28 11:56:04;;;;;;;10.93;7.25;;;31.10;52.80;;;;;;4972120;28;20054;-83
2021/07/28 11:58:30;;;;;;;13.93;7.43;;;31.40;53.10;;;;;;4973522;28;20065;-83
2021/07/28 12:00:56;;;;;;;14.48;8.32;;;31.40;50.90;;;;;;4973328;28;20062;-83
2021/07/28 12:03:26;;;;;;;15.00;8.73;;;31.20;50.20;;;;;;4972873;28;20058;-83
2021/07/28 12:05:58;;;;;;;16.13;8.52;;;31.30;49.80;;;;;;4973232;28;20029;-84
2021/07/28 12:08:37;;;;;;;13.65;7.53;;;31.30;50.50;;;;;;4988289;28;20023;-83
2021/07/28 12:11:07;;;;;;;21.83;9.05;;;31.30;50.40;;;;;;4972373;28;20088;-83
2021/07/28 12:13:40;;;;;;;17.52;8.77;;;31.40;51.10;;;;;;4971821;28;20019;-83
2021/07/28 12:16:06;;;;;;;16.08;8.45;;;31.60;51.80;;;;;;4973072;28;20051;-83
2021/07/28 12:18:49;;;;;;;16.27;8.70;;;31.80;51.10;;;;;;4973553;28;20470;-83
2021/07/28 12:21:14;;;;;;;13.38;8.70;;;31.80;52.10;;;;;;4985815;28;20022;-83
2021/07/28 12:23:54;;;;;;;17.00;9.13;;;31.80;50.60;;;;;;4989746;28;20391;-83
2021/07/28 12:26:46;;;;;;;13.30;7.70;;;31.70;49.10;;;;;;4990030;28;20080;-83
2021/07/28 12:29:11;;;;;;;11.77;8.32;;;31.80;51.80;;;;;;4988740;28;20067;-84
2021/07/28 12:31:37;;;;;;;15.90;7.68;;;31.80;49.60;;;;;;4991002;28;20421;-84
2021/07/28 12:34:21;;;;;;;14.77;8.02;;;32.00;50.60;;;;;;4987419;28;20026;-84
2021/07/28 12:36:47;;;;;;;18.60;8.73;;;32.20;50.50;;;;;;4985606;28;20558;-84
2021/07/28 12:39:14;;;;;;;17.20;8.50;;;32.30;50.00;;;;;;4990444;28;20038;-84
2021/07/28 12:41:39;;;;;;;11.88;7.05;;;32.40;47.40;;;;;;4988815;28;20054;-85
2021/07/28 12:44:05;;;;;;;16.27;8.32;;;32.40;46.50;;;;;;4984082;28;20053;-85
2021/07/28 12:46:30;;;;;;;16.45;8.95;;;32.60;46.70;;;;;;4989959;28;20031;-85
2021/07/28 12:48:56;;;;;;;19.02;8.57;;;32.30;46.90;;;;;;4987571;28;20497;-85